Time;durP1;ratioP1;P1;durP2;ratioP2;P2;SDS_P1;SDS_P2;PMS_P1;PMS_P2;Temp;Humidity;BMP_temperature;BMP_pressure;BME280_temperature;BME280_humidity;BME280_pressure;Samples;Min_cycle;Max_cycle;Signal;HPM_P1;HPM_P2
2022/04/12 00:01:12;;;;;;;1.73;0.50;;;20.80;53.00;;;;;;4949420;28;20214;-57
2022/04/12 00:03:42;;;;;;;1.95;0.52;;;20.80;53.00;;;;;;4949336;28;20290;-57
2022/04/12 00:06:14;;;;;;;1.42;0.60;;;20.90;53.00;;;;;;4949594;28;20290;-57
2022/04/12 00:08:45;;;;;;;1.25;0.60;;;20.90;53.00;;;;;;4949620;28;20241;-57
2022/04/12 00:11:15;;;;;;;0.70;0.55;;;20.90;52.90;;;;;;4950582;28;20332;-56
2022/04/12 00:13:46;;;;;;;1.08;0.60;;;20.90;53.00;;;;;;4949598;28;20514;-59
2022/04/12 00:16:16;;;;;;;1.10;0.60;;;20.90;53.10;;;;;;4949619;28;20332;-60
2022/04/12 00:19:03;;;;;;;0.60;0.60;;;20.90;53.00;;;;;;4949012;28;20227;-59
2022/04/12 00:21:37;;;;;;;1.73;0.60;;;20.90;53.00;;;;;;4950212;28;20210;-60
2022/04/12 00:24:09;;;;;;;1.63;1.00;;;20.90;52.90;;;;;;4949534;28;20206;-59
2022/04/12 00:26:39;;;;;;;0.95;0.65;;;20.90;52.90;;;;;;4949488;28;20211;-56
2022/04/12 00:29:10;;;;;;;1.92;0.80;;;21.00;53.00;;;;;;4967522;23;20290;-49
2022/04/12 00:31:40;;;;;;;0.90;0.52;;;21.00;53.00;;;;;;4952394;29;20313;-45
2022/04/12 00:34:12;;;;;;;1.88;0.65;;;21.00;53.00;;;;;;4953483;28;20746;-48
2022/04/12 00:36:45;;;;;;;1.23;0.70;;;21.00;53.00;;;;;;4952338;28;20237;-46
2022/04/12 00:39:15;;;;;;;1.38;0.70;;;21.00;53.10;;;;;;4953578;28;20758;-46
2022/04/12 00:41:46;;;;;;;1.30;0.75;;;20.90;53.10;;;;;;4952996;28;21611;-47
2022/04/12 00:44:16;;;;;;;2.22;1.00;;;21.00;53.30;;;;;;4953926;28;20553;-46
2022/04/12 00:46:47;;;;;;;1.20;0.73;;;21.00;53.30;;;;;;4952477;28;20289;-47
2022/04/12 00:49:17;;;;;;;1.05;0.70;;;21.00;53.40;;;;;;4953280;28;20234;-47
2022/04/12 00:51:50;;;;;;;1.52;0.60;;;20.90;53.30;;;;;;4952530;28;20198;-47
2022/04/12 00:54:21;;;;;;;1.92;0.90;;;21.00;53.50;;;;;;4953105;28;20286;-45
2022/04/12 00:56:53;;;;;;;1.42;0.90;;;21.00;53.50;;;;;;4953045;28;20301;-45
2022/04/12 00:59:23;;;;;;;1.20;0.70;;;21.00;53.50;;;;;;4952654;28;20766;-47
2022/04/12 01:01:54;;;;;;;1.05;0.68;;;21.00;53.50;;;;;;4953091;28;20286;-46
2022/04/12 01:04:25;;;;;;;1.25;0.70;;;21.00;53.50;;;;;;4952218;28;20330;-46
2022/04/12 01:06:57;;;;;;;1.52;0.80;;;21.00;53.50;;;;;;4952369;28;20296;-46
2022/04/12 01:09:28;;;;;;;1.27;0.70;;;21.00;53.50;;;;;;4952149;28;20219;-46
2022/04/12 01:12:02;;;;;;;1.02;0.60;;;21.00;53.50;;;;;;4952075;28;20286;-47
2022/04/12 01:14:33;;;;;;;1.73;0.85;;;21.00;53.50;;;;;;4952796;28;20234;-48
2022/04/12 01:17:07;;;;;;;1.88;0.80;;;21.00;53.50;;;;;;4953104;28;20231;-45
2022/04/12 01:19:37;;;;;;;1.00;0.80;;;21.00;53.60;;;;;;4952221;28;20261;-46
2022/04/12 01:22:14;;;;;;;1.90;1.00;;;20.90;53.50;;;;;;4952757;28;20199;-47
2022/04/12 01:24:47;;;;;;;1.58;0.80;;;21.00;53.60;;;;;;4952151;28;20667;-48
2022/04/12 01:27:17;;;;;;;1.83;0.98;;;21.00;53.60;;;;;;4952119;28;20309;-47
2022/04/12 02:24:26;;;;;;;1.35;0.82;;;20.80;53.80;;;;;;5847607;23;20261;-60
2022/04/12 02:27:01;;;;;;;1.35;0.80;;;20.80;53.90;;;;;;4949589;28;20531;-62
2022/04/12 02:29:32;;;;;;;1.73;0.80;;;20.80;53.90;;;;;;4984535;23;20229;-57
2022/04/12 02:32:03;;;;;;;1.58;1.05;;;20.80;53.90;;;;;;4951033;29;20197;-57
2022/04/12 02:34:33;;;;;;;2.08;0.85;;;20.80;54.00;;;;;;4951602;28;20281;-57
2022/04/12 02:37:04;;;;;;;1.33;0.90;;;20.80;54.00;;;;;;4951239;28;20274;-57
2022/04/12 02:39:36;;;;;;;1.05;0.80;;;20.70;54.00;;;;;;4951021;28;20309;-60
2022/04/12 02:42:07;;;;;;;1.48;0.82;;;20.80;54.00;;;;;;4951779;28;20285;-57
2022/04/12 02:44:37;;;;;;;1.50;1.00;;;20.70;54.00;;;;;;4951243;28;20278;-60
2022/04/12 02:47:08;;;;;;;2.03;0.80;;;20.70;54.10;;;;;;4950659;29;20302;-59
2022/04/12 02:49:39;;;;;;;1.00;0.70;;;20.70;54.10;;;;;;4951030;28;20219;-59
2022/04/12 02:52:10;;;;;;;1.23;0.90;;;20.70;54.00;;;;;;4950196;28;20707;-57
2022/04/12 02:54:42;;;;;;;0.85;0.75;;;20.70;54.10;;;;;;4950787;28;20199;-60
2022/04/12 02:57:13;;;;;;;1.58;0.90;;;20.70;54.00;;;;;;4950306;28;20751;-57
2022/04/12 02:59:43;;;;;;;1.40;0.75;;;20.70;54.00;;;;;;4950115;28;20236;-56
2022/04/12 03:02:14;;;;;;;2.33;1.10;;;20.70;54.00;;;;;;4949997;28;20195;-57
2022/04/12 03:04:44;;;;;;;1.05;0.77;;;20.70;54.00;;;;;;4949053;29;20285;-58
2022/04/12 03:07:15;;;;;;;1.63;1.15;;;20.70;54.00;;;;;;4950105;28;20231;-59
2022/04/12 03:09:47;;;;;;;1.05;0.90;;;20.70;54.10;;;;;;4951024;28;20298;-60
2022/04/12 03:12:18;;;;;;;1.40;0.80;;;20.70;54.00;;;;;;4950182;28;20282;-61
2022/04/12 03:14:48;;;;;;;1.67;0.82;;;20.70;54.00;;;;;;4950697;28;20603;-58
2022/04/12 03:17:19;;;;;;;1.33;0.80;;;20.70;54.00;;;;;;4949824;28;20673;-60
2022/04/12 03:19:49;;;;;;;1.77;0.90;;;20.70;54.00;;;;;;4950304;28;20234;-60
2022/04/12 03:22:20;;;;;;;1.10;0.88;;;20.70;54.10;;;;;;4949800;28;20211;-60
2022/04/12 03:24:52;;;;;;;0.77;0.70;;;20.70;54.10;;;;;;4950321;28;20298;-61
2022/04/12 03:27:22;;;;;;;1.35;0.80;;;20.70;54.10;;;;;;4950742;28;20278;-60
2022/04/12 03:29:53;;;;;;;1.45;1.00;;;20.70;54.10;;;;;;4950541;28;20227;-61
2022/04/12 03:32:23;;;;;;;1.30;0.93;;;20.70;54.10;;;;;;4950781;28;20199;-58
2022/04/12 03:34:54;;;;;;;0.93;0.60;;;20.70;54.10;;;;;;4950571;28;20302;-60
2022/04/12 03:37:24;;;;;;;1.27;0.90;;;20.60;54.10;;;;;;4949294;28;20297;-61
2022/04/12 03:39:56;;;;;;;1.25;0.90;;;20.70;54.20;;;;;;4949507;28;20889;-61
2022/04/12 03:42:27;;;;;;;1.70;0.95;;;20.70;54.20;;;;;;4950717;28;20278;-60
2022/04/12 03:44:57;;;;;;;0.80;0.80;;;20.70;54.10;;;;;;4949836;28;20230;-60
2022/04/12 03:47:28;;;;;;;1.60;1.10;;;20.70;54.00;;;;;;4949867;28;20277;-61
2022/04/12 03:49:58;;;;;;;0.70;0.70;;;20.70;54.00;;;;;;4949161;28;20302;-60
2022/04/12 03:52:29;;;;;;;1.20;1.00;;;20.70;53.90;;;;;;4950474;28;20203;-60
2022/04/12 03:55:01;;;;;;;0.93;0.82;;;20.70;54.00;;;;;;4950709;28;20282;-60
2022/04/12 03:57:32;;;;;;;1.30;0.88;;;20.70;54.00;;;;;;4949590;28;20211;-60
2022/04/12 04:00:03;;;;;;;1.10;1.00;;;20.80;54.00;;;;;;4950489;28;20628;-60
2022/04/12 04:02:33;;;;;;;0.98;0.70;;;20.70;53.90;;;;;;4949898;28;20277;-60
2022/04/12 04:05:04;;;;;;;2.65;1.10;;;20.70;54.00;;;;;;4953880;28;20599;-61
2022/04/12 04:07:35;;;;;;;2.20;1.15;;;20.80;54.00;;;;;;4953291;28;20305;-59
2022/04/12 04:10:07;;;;;;;2.97;1.60;;;20.70;54.50;;;;;;4952861;28;20242;-59
2022/04/12 04:12:38;;;;;;;4.20;1.70;;;20.80;55.30;;;;;;4952612;28;20242;-59
2022/04/12 04:15:12;;;;;;;3.25;1.77;;;20.80;55.60;;;;;;4953527;28;20230;-59
2022/04/12 04:17:43;;;;;;;3.47;2.00;;;20.80;55.80;;;;;;4952157;28;20206;-60
2022/04/12 04:20:15;;;;;;;3.58;2.08;;;20.80;55.80;;;;;;4953256;28;20233;-59
2022/04/12 04:22:45;;;;;;;3.00;2.03;;;20.90;55.90;;;;;;4955860;28;20237;-59
2022/04/12 04:25:19;;;;;;;4.32;1.90;;;20.90;56.00;;;;;;4954960;28;20282;-59
2022/04/12 04:27:49;;;;;;;1.73;1.60;;;20.90;55.90;;;;;;4953456;28;20664;-60
2022/04/12 04:30:20;;;;;;;2.85;1.85;;;20.90;55.90;;;;;;5009105;23;20234;-57
2022/04/12 04:32:51;;;;;;;2.45;1.77;;;21.00;56.00;;;;;;4953081;28;20199;-57
2022/04/12 04:35:22;;;;;;;3.55;2.03;;;21.00;56.00;;;;;;4953034;28;20202;-57
2022/04/12 04:37:53;;;;;;;1.95;1.70;;;21.00;56.00;;;;;;4953465;28;20866;-56
2022/04/12 04:40:25;;;;;;;3.28;2.17;;;21.00;56.00;;;;;;4953518;28;20314;-57
2022/04/12 04:42:56;;;;;;;3.85;2.03;;;21.00;55.90;;;;;;4953491;28;20202;-57
2022/04/12 04:45:26;;;;;;;3.42;2.40;;;21.10;55.90;;;;;;4953161;28;20664;-57
2022/04/12 04:47:58;;;;;;;5.90;2.17;;;21.10;55.90;;;;;;4953290;28;20286;-57
2022/04/12 04:50:31;;;;;;;5.28;2.42;;;21.10;55.90;;;;;;4952460;28;20309;-57
2022/04/12 04:53:03;;;;;;;4.95;2.42;;;21.10;55.90;;;;;;4952244;28;20203;-57
2022/04/12 04:55:35;;;;;;;3.92;2.20;;;21.10;55.90;;;;;;4952080;28;20437;-57
2022/04/12 04:58:07;;;;;;;4.35;2.38;;;21.10;55.90;;;;;;4952930;28;20195;-59
2022/04/12 05:00:37;;;;;;;4.63;2.45;;;21.10;55.80;;;;;;4952162;28;20305;-59
2022/04/12 05:03:08;;;;;;;4.55;2.30;;;21.20;55.90;;;;;;4952564;28;20286;-59
2022/04/12 05:05:38;;;;;;;4.90;2.97;;;21.20;55.80;;;;;;4952546;28;20278;-59
2022/04/12 05:08:09;;;;;;;4.18;2.40;;;21.20;55.80;;;;;;4953257;28;20345;-58
2022/04/12 05:10:44;;;;;;;3.92;2.28;;;21.10;55.70;;;;;;4952072;28;20301;-59
2022/04/12 05:13:15;;;;;;;5.32;2.58;;;21.20;55.60;;;;;;4952693;28;20903;-59
2022/04/12 05:15:45;;;;;;;4.85;2.35;;;21.20;55.60;;;;;;4952266;28;20203;-59
2022/04/12 05:18:16;;;;;;;4.20;2.47;;;21.20;55.60;;;;;;4952317;28;20298;-59
2022/04/12 05:20:46;;;;;;;3.58;2.30;;;21.20;55.50;;;;;;4952095;28;20322;-58
2022/04/12 05:23:17;;;;;;;4.43;2.00;;;21.20;55.50;;;;;;4951875;28;20282;-60
2022/04/12 05:25:52;;;;;;;9.05;2.28;;;21.20;55.50;;;;;;4952320;28;20287;-59
2022/04/12 05:28:23;;;;;;;3.65;2.33;;;21.20;55.40;;;;;;4951716;28;20327;-59
2022/04/12 05:30:53;;;;;;;4.10;2.38;;;21.20;55.30;;;;;;4952395;28;20665;-59
2022/04/12 05:33:24;;;;;;;3.00;1.98;;;21.20;55.30;;;;;;4951853;28;20691;-59
2022/04/12 05:35:54;;;;;;;4.45;2.08;;;21.20;55.30;;;;;;4951870;28;20203;-59
2022/04/12 05:38:25;;;;;;;4.18;2.30;;;21.20;55.20;;;;;;4952021;28;20234;-59
2022/04/12 05:40:57;;;;;;;5.35;2.72;;;21.20;55.20;;;;;;4951834;28;20313;-59
2022/04/12 05:43:27;;;;;;;4.85;2.40;;;21.20;55.20;;;;;;4951254;29;20223;-59
2022/04/12 05:45:58;;;;;;;4.22;2.30;;;21.20;55.10;;;;;;4951482;28;20195;-59
2022/04/12 05:48:28;;;;;;;5.20;2.67;;;21.20;55.10;;;;;;4951950;28;20205;-59
2022/04/12 05:50:59;;;;;;;3.60;2.35;;;21.20;55.60;;;;;;4951537;28;20246;-59
2022/04/12 05:53:29;;;;;;;3.70;2.38;;;21.20;55.00;;;;;;4950849;28;20286;-58
2022/04/12 05:56:01;;;;;;;3.83;2.50;;;21.20;55.00;;;;;;4951995;28;20286;-59
2022/04/12 05:58:35;;;;;;;3.63;2.47;;;21.20;55.00;;;;;;4952470;28;20202;-58
2022/04/12 06:01:06;;;;;;;4.25;2.30;;;21.20;55.50;;;;;;4951446;28;20223;-59
2022/04/12 06:03:36;;;;;;;5.43;2.80;;;21.20;54.90;;;;;;4950951;28;20294;-58
2022/04/12 06:06:06;;;;;;;4.75;2.78;;;21.20;54.90;;;;;;4951670;28;20223;-57
2022/04/12 06:08:37;;;;;;;6.05;2.75;;;21.20;54.90;;;;;;4951023;28;20278;-57
2022/04/12 06:11:09;;;;;;;3.50;2.63;;;21.20;54.90;;;;;;4952155;28;20250;-56
2022/04/12 06:13:40;;;;;;;4.32;2.45;;;21.20;54.90;;;;;;4951447;28;20282;-57
2022/04/12 06:16:10;;;;;;;3.35;2.42;;;21.10;54.80;;;;;;4951074;28;20871;-56
2022/04/12 06:18:40;;;;;;;4.13;2.80;;;21.10;54.80;;;;;;4950463;28;20755;-56
2022/04/12 06:21:11;;;;;;;3.20;2.30;;;21.10;54.80;;;;;;4950725;28;20254;-56
2022/04/12 06:23:41;;;;;;;5.18;3.08;;;21.10;54.80;;;;;;4950790;28;20287;-59
2022/04/12 06:26:14;;;;;;;3.88;2.58;;;21.10;54.80;;;;;;4951259;28;20684;-59
2022/04/12 06:28:44;;;;;;;3.85;2.40;;;21.10;54.70;;;;;;4950856;28;20219;-57
2022/04/12 06:31:15;;;;;;;4.22;2.67;;;21.10;54.70;;;;;;4951205;28;20317;-59
2022/04/12 06:33:45;;;;;;;4.57;2.50;;;21.10;54.60;;;;;;4950532;28;20286;-59
2022/04/12 06:36:15;;;;;;;5.25;3.00;;;21.10;54.70;;;;;;4950615;28;20289;-58
2022/04/12 06:38:46;;;;;;;3.50;2.20;;;21.10;54.60;;;;;;4950696;28;20618;-58
2022/04/12 06:41:18;;;;;;;4.68;2.53;;;21.00;54.60;;;;;;4950761;28;20662;-59
2022/04/12 06:43:49;;;;;;;5.38;2.70;;;21.00;54.60;;;;;;4951583;28;20234;-58
2022/04/12 06:46:19;;;;;;;3.70;2.10;;;21.00;54.50;;;;;;4950784;28;20293;-59
2022/04/12 06:48:50;;;;;;;5.45;2.67;;;20.90;54.40;;;;;;4951282;28;20628;-59
2022/04/12 06:51:20;;;;;;;3.45;2.38;;;20.90;54.50;;;;;;4950458;28;20298;-58
2022/04/12 06:53:51;;;;;;;4.32;2.53;;;20.90;54.50;;;;;;4950129;28;20282;-58
2022/04/12 06:56:23;;;;;;;2.75;2.42;;;20.90;54.50;;;;;;4950123;28;20206;-58
2022/04/12 06:58:54;;;;;;;3.60;2.25;;;20.80;54.40;;;;;;4950353;28;20201;-59
2022/04/12 07:01:24;;;;;;;3.80;2.30;;;20.80;54.40;;;;;;4951294;28;20242;-58
2022/04/12 07:03:54;;;;;;;3.58;2.28;;;20.80;54.40;;;;;;4950380;28;20285;-58
2022/04/12 07:06:25;;;;;;;3.88;2.30;;;20.80;54.40;;;;;;4950780;28;20293;-58
2022/04/12 07:08:55;;;;;;;3.22;2.22;;;20.80;54.40;;;;;;4950509;28;20278;-58
2022/04/12 07:11:28;;;;;;;3.20;2.38;;;20.80;54.40;;;;;;4950345;28;20302;-57
2022/04/12 07:13:58;;;;;;;3.55;2.30;;;20.80;54.40;;;;;;4950257;29;20195;-58
2022/04/12 07:16:29;;;;;;;3.15;2.30;;;20.70;54.40;;;;;;4950795;28;20282;-58
2022/04/12 07:18:59;;;;;;;3.38;2.17;;;20.70;54.40;;;;;;4950412;28;20282;-58
2022/04/12 07:21:30;;;;;;;3.67;2.20;;;20.70;54.30;;;;;;4951230;28;20269;-58
2022/04/12 07:24:03;;;;;;;3.60;2.45;;;20.70;54.40;;;;;;4951402;28;20672;-58
2022/04/12 07:26:36;;;;;;;3.83;2.40;;;20.60;54.30;;;;;;4950386;28;20202;-58
2022/04/12 07:29:07;;;;;;;2.85;2.05;;;20.60;54.30;;;;;;4950089;28;20225;-58
2022/04/12 07:31:37;;;;;;;3.20;2.13;;;20.60;54.30;;;;;;4950715;28;20313;-59
2022/04/12 07:34:09;;;;;;;2.88;1.80;;;20.60;54.30;;;;;;4950435;28;20286;-59
2022/04/12 07:36:47;;;;;;;3.70;2.42;;;20.50;54.30;;;;;;4949622;28;20273;-59
2022/04/12 07:39:17;;;;;;;3.45;2.17;;;20.50;54.50;;;;;;4952200;28;20202;-58
2022/04/12 07:41:50;;;;;;;5.50;2.65;;;20.50;54.40;;;;;;4954779;28;20199;-56
2022/04/12 07:44:21;;;;;;;6.30;2.80;;;20.50;54.60;;;;;;4955414;28;20625;-57
2022/04/12 07:46:52;;;;;;;5.90;2.72;;;20.50;55.60;;;;;;4955287;28;20642;-58
2022/04/12 07:49:23;;;;;;;5.10;2.33;;;20.50;56.50;;;;;;4955316;28;20293;-59
2022/04/12 07:51:53;;;;;;;4.88;2.65;;;20.50;56.40;;;;;;4955005;28;20281;-57
2022/04/12 07:54:23;;;;;;;4.65;2.38;;;20.50;56.20;;;;;;4952350;28;20194;-58
2022/04/12 07:56:56;;;;;;;5.25;2.30;;;20.50;56.00;;;;;;4954310;28;20282;-58
2022/04/12 07:59:26;;;;;;;3.85;2.42;;;20.50;55.90;;;;;;4953605;28;20326;-59
2022/04/12 08:01:57;;;;;;;4.35;2.20;;;20.50;55.80;;;;;;4952805;28;20289;-58
2022/04/12 08:04:27;;;;;;;6.40;2.42;;;20.50;55.80;;;;;;4953839;28;20293;-58
2022/04/12 08:06:58;;;;;;;3.70;2.42;;;20.50;55.70;;;;;;4953702;28;20199;-57
2022/04/12 08:09:28;;;;;;;4.57;2.60;;;20.40;55.60;;;;;;4953042;28;20205;-56
2022/04/12 08:12:01;;;;;;;4.15;2.22;;;20.50;55.60;;;;;;4953996;28;20203;-58
2022/04/12 08:14:31;;;;;;;5.57;2.97;;;20.50;55.50;;;;;;4952958;28;20288;-59
2022/04/12 08:17:01;;;;;;;5.75;2.63;;;20.40;55.40;;;;;;4953464;28;20286;-59
2022/04/12 08:19:32;;;;;;;2.70;2.00;;;20.40;55.30;;;;;;4953570;28;20287;-59
2022/04/12 08:22:04;;;;;;;3.92;2.45;;;20.40;55.30;;;;;;4954032;28;20205;-59
2022/04/12 08:24:36;;;;;;;4.40;2.42;;;20.40;55.30;;;;;;4953541;28;20281;-59
2022/04/12 08:27:09;;;;;;;3.72;2.30;;;20.40;55.30;;;;;;4953726;28;20253;-58
2022/04/12 08:29:39;;;;;;;4.13;2.30;;;20.40;55.20;;;;;;4953989;28;20231;-58
2022/04/12 08:32:10;;;;;;;3.05;2.10;;;20.30;55.20;;;;;;4952927;28;20209;-59
2022/04/12 08:34:41;;;;;;;3.97;2.20;;;20.30;55.10;;;;;;4953765;28;20285;-58
2022/04/12 08:37:11;;;;;;;3.35;2.17;;;20.30;55.10;;;;;;4953308;28;20286;-57
2022/04/12 08:39:42;;;;;;;3.50;2.35;;;20.30;55.10;;;;;;4953128;28;20278;-59
2022/04/12 08:42:14;;;;;;;3.80;2.22;;;20.30;55.10;;;;;;4952584;28;20286;-57
2022/04/12 08:44:48;;;;;;;3.17;2.55;;;20.20;55.10;;;;;;4952738;28;20748;-57
2022/04/12 08:47:20;;;;;;;3.90;2.30;;;20.20;55.10;;;;;;4953318;28;20294;-59
2022/04/12 08:49:51;;;;;;;4.53;2.58;;;20.20;55.00;;;;;;4952034;28;20301;-57
2022/04/12 08:52:21;;;;;;;3.65;2.20;;;20.20;55.10;;;;;;4952697;28;20286;-59
2022/04/12 08:54:52;;;;;;;3.65;2.03;;;20.20;55.00;;;;;;4952555;29;20258;-59
2022/04/12 08:57:25;;;;;;;5.20;2.10;;;20.20;55.00;;;;;;4951820;28;20278;-59
2022/04/12 08:59:55;;;;;;;3.50;2.17;;;20.20;55.00;;;;;;4952102;28;20301;-58
2022/04/12 09:02:26;;;;;;;3.25;2.10;;;20.20;55.00;;;;;;4952898;28;20694;-59
2022/04/12 09:04:56;;;;;;;4.13;2.28;;;20.20;55.00;;;;;;4951745;29;20281;-59
2022/04/12 09:07:29;;;;;;;3.35;2.05;;;20.20;54.90;;;;;;4952637;28;20290;-56
2022/04/12 09:10:08;;;;;;;2.60;2.05;;;20.20;54.90;;;;;;4952174;28;20880;-58
2022/04/12 09:12:40;;;;;;;3.05;2.25;;;20.20;54.90;;;;;;4952534;28;20210;-59
2022/04/12 09:15:15;;;;;;;3.50;2.30;;;20.20;54.90;;;;;;4951711;28;20290;-57
2022/04/12 09:17:48;;;;;;;2.97;2.15;;;20.10;54.90;;;;;;4952567;28;20194;-56
2022/04/12 09:20:19;;;;;;;4.28;2.13;;;20.10;54.90;;;;;;4952319;28;20223;-58
2022/04/12 09:23:19;;;;;;;4.45;2.22;;;20.10;54.90;;;;;;4952052;28;20346;-59
2022/04/12 09:26:35;;;;;;;4.50;2.40;;;20.10;54.90;;;;;;4952467;28;20281;-59
2022/04/12 09:29:20;;;;;;;3.40;1.95;;;20.10;54.90;;;;;;4951157;28;20195;-57
2022/04/12 09:31:59;;;;;;;4.60;2.40;;;20.00;54.90;;;;;;4952274;28;20254;-57
2022/04/12 09:34:30;;;;;;;6.40;2.72;;;20.10;56.20;;;;;;4952409;28;20285;-56
2022/04/12 09:37:01;;;;;;;5.70;3.00;;;20.10;56.90;;;;;;4951601;28;20214;-59
2022/04/12 09:40:11;;;;;;;4.80;2.60;;;20.10;57.00;;;;;;4951824;28;20294;-59
2022/04/12 09:43:05;;;;;;;5.75;2.65;;;20.10;56.90;;;;;;4951661;28;20218;-60
2022/04/12 09:45:37;;;;;;;3.85;2.03;;;20.10;56.60;;;;;;4929574;28;20270;-60
2022/04/12 09:48:47;;;;;;;4.72;2.40;;;20.10;56.40;;;;;;4952259;28;20282;-60
2022/04/12 09:51:38;;;;;;;4.03;2.50;;;20.10;56.40;;;;;;4952008;28;20301;-59
2022/04/12 09:57:19;;;;;;;4.57;2.40;;;20.10;56.10;;;;;;4948865;28;20223;-59
2022/04/12 09:59:51;;;;;;;4.15;2.28;;;20.10;56.00;;;;;;4951913;28;20634;-62
2022/04/12 10:02:24;;;;;;;5.55;2.40;;;20.10;56.00;;;;;;4951322;28;20280;-58
2022/04/12 10:04:56;;;;;;;4.18;2.35;;;20.10;55.90;;;;;;4952307;28;20283;-57
2022/04/12 10:07:27;;;;;;;4.05;2.30;;;20.00;55.80;;;;;;4950412;28;20616;-57
2022/04/12 10:09:58;;;;;;;3.63;2.00;;;20.00;55.80;;;;;;4951018;28;20293;-58
2022/04/12 10:12:28;;;;;;;4.60;2.65;;;20.00;55.70;;;;;;4951282;28;20278;-57
2022/04/12 10:14:59;;;;;;;3.55;2.00;;;20.00;55.70;;;;;;4951338;28;20227;-57
2022/04/12 10:17:32;;;;;;;4.72;2.33;;;20.00;55.70;;;;;;4950722;28;20279;-56
2022/04/12 10:20:03;;;;;;;4.85;2.55;;;20.00;55.70;;;;;;4951265;28;20309;-57
2022/04/12 10:22:34;;;;;;;3.72;2.22;;;20.00;56.30;;;;;;4950455;28;20246;-58
2022/04/12 10:25:06;;;;;;;3.05;2.28;;;20.00;55.60;;;;;;4951462;28;20711;-57
2022/04/12 10:27:49;;;;;;;3.75;2.22;;;20.00;55.60;;;;;;4950717;28;20278;-57
2022/04/12 10:30:28;;;;;;;3.13;2.20;;;19.90;55.50;;;;;;4951696;28;20689;-57
2022/04/12 10:33:04;;;;;;;4.03;2.20;;;19.90;55.50;;;;;;4950794;28;20532;-57
2022/04/12 10:36:02;;;;;;;3.08;2.05;;;19.90;55.40;;;;;;4951226;28;20697;-56
2022/04/12 10:38:43;;;;;;;3.90;2.05;;;19.90;55.40;;;;;;4951552;28;20205;-56
2022/04/12 10:41:31;;;;;;;4.95;2.20;;;19.90;55.40;;;;;;4950976;28;20309;-56
2022/04/12 10:44:02;;;;;;;2.92;1.92;;;19.90;56.00;;;;;;4950676;28;20222;-57
2022/04/12 10:46:49;;;;;;;3.53;2.22;;;19.90;55.30;;;;;;4950903;28;20203;-57
2022/04/12 10:49:39;;;;;;;4.10;2.30;;;19.90;55.30;;;;;;4950566;28;20205;-56
2022/04/12 10:52:11;;;;;;;3.72;2.22;;;19.90;55.30;;;;;;4949997;28;20221;-57
2022/04/12 10:54:41;;;;;;;3.83;2.30;;;19.90;55.30;;;;;;4950208;28;20278;-56
2022/04/12 10:57:26;;;;;;;3.70;2.03;;;19.80;55.30;;;;;;4951370;28;20205;-56
2022/04/12 11:00:01;;;;;;;3.55;2.10;;;19.90;55.40;;;;;;4950611;28;20250;-56
2022/04/12 11:02:40;;;;;;;3.55;2.25;;;19.80;55.30;;;;;;4950320;28;20229;-57
2022/04/12 11:05:54;;;;;;;3.63;2.00;;;19.80;55.30;;;;;;4950458;28;20283;-57
2022/04/12 11:08:47;;;;;;;3.03;2.08;;;19.80;55.30;;;;;;4950851;28;20203;-57
2022/04/12 11:11:27;;;;;;;2.13;1.77;;;19.80;55.30;;;;;;4943260;28;20297;-58
2022/04/12 11:14:18;;;;;;;3.83;2.03;;;19.80;55.30;;;;;;4950953;28;20210;-57
2022/04/12 11:16:53;;;;;;;3.30;2.00;;;19.80;55.30;;;;;;4949983;28;20199;-56
2022/04/12 11:19:24;;;;;;;4.88;1.80;;;19.80;55.30;;;;;;4951064;28;20690;-57
2022/04/12 11:22:06;;;;;;;2.80;2.03;;;19.70;55.20;;;;;;4949451;28;20236;-57
2022/04/12 11:24:37;;;;;;;2.92;1.90;;;19.70;55.30;;;;;;4950485;28;20674;-57
2022/04/12 11:27:09;;;;;;;3.03;2.00;;;19.70;55.20;;;;;;4950637;28;20219;-58
2022/04/12 11:32:12;;;;;;;3.45;1.77;;;19.70;55.30;;;;;;4911496;29;20232;-45
2022/04/12 11:34:43;;;;;;;3.13;1.73;;;19.70;55.20;;;;;;4911825;29;20271;-45
2022/04/12 11:37:16;;;;;;;2.47;1.50;;;19.70;55.20;;;;;;4912274;29;20636;-47
2022/04/12 11:39:47;;;;;;;2.90;1.98;;;19.70;55.20;;;;;;4912872;29;20291;-45
2022/04/12 11:42:18;;;;;;;1.90;1.55;;;19.70;55.30;;;;;;4914244;29;20236;-47
2022/04/12 11:44:54;;;;;;;3.42;1.98;;;19.60;55.20;;;;;;4915451;29;20235;-49
2022/04/12 11:47:33;;;;;;;3.08;1.95;;;19.60;55.20;;;;;;4914261;29;20282;-46
2022/04/12 11:50:04;;;;;;;2.45;1.50;;;19.60;55.20;;;;;;4913784;29;21151;-46
2022/04/12 11:52:37;;;;;;;2.92;1.50;;;19.60;55.20;;;;;;4913307;29;20292;-45
2022/04/12 11:55:09;;;;;;;2.63;1.80;;;19.60;55.20;;;;;;4913359;29;20232;-47
2022/04/12 11:57:39;;;;;;;3.83;1.70;;;19.60;55.20;;;;;;4912993;29;20207;-46
2022/04/12 12:00:11;;;;;;;2.70;1.60;;;19.60;55.20;;;;;;4912981;29;20266;-46
2022/04/12 12:02:42;;;;;;;2.85;1.88;;;19.60;55.80;;;;;;4913355;29;20808;-49
2022/04/12 12:05:14;;;;;;;2.83;1.85;;;19.60;55.20;;;;;;4913603;29;20240;-45
2022/04/12 12:07:46;;;;;;;2.60;1.75;;;19.50;55.20;;;;;;4913812;29;20204;-55
2022/04/12 12:10:18;;;;;;;3.40;1.90;;;19.50;55.20;;;;;;4913263;29;20735;-53
2022/04/12 12:12:49;;;;;;;2.30;1.60;;;19.50;55.20;;;;;;4913025;29;20284;-55
2022/04/12 12:15:21;;;;;;;1.85;1.70;;;19.50;55.20;;;;;;4913543;29;20200;-60
2022/04/12 12:17:52;;;;;;;2.28;1.75;;;19.50;55.20;;;;;;4913619;29;20200;-58
2022/04/12 12:20:24;;;;;;;2.53;1.77;;;19.50;55.20;;;;;;4913229;29;20297;-63
2022/04/12 12:22:58;;;;;;;2.45;1.50;;;19.50;55.20;;;;;;4912497;29;20835;-61
2022/04/12 12:25:40;;;;;;;2.70;1.60;;;19.50;55.20;;;;;;4915115;29;20629;-62
2022/04/12 12:28:15;;;;;;;2.72;1.63;;;19.50;55.20;;;;;;4914979;29;20283;-57
2022/04/12 13:30:22;;;;;;;2.38;1.40;;;19.30;55.10;;;;;;5827741;23;20602;-59
2022/04/12 13:32:53;;;;;;;2.92;1.50;;;19.30;55.20;;;;;;4953879;28;20637;-58
2022/04/12 13:35:23;;;;;;;2.35;1.50;;;19.20;55.20;;;;;;4953990;28;20281;-59
2022/04/12 13:37:54;;;;;;;1.95;1.45;;;19.20;55.10;;;;;;4952765;28;20734;-58
2022/04/12 13:40:26;;;;;;;1.58;1.30;;;19.20;55.20;;;;;;4953429;28;20649;-58
2022/04/12 13:42:56;;;;;;;1.92;1.38;;;19.20;55.20;;;;;;4953618;28;20234;-58
2022/04/12 13:45:28;;;;;;;1.80;1.10;;;19.20;55.20;;;;;;4951211;28;20641;-58
2022/04/12 13:47:59;;;;;;;2.92;1.45;;;19.20;55.20;;;;;;4953511;28;20239;-59
2022/04/12 13:50:29;;;;;;;1.85;1.25;;;19.20;55.20;;;;;;4952953;28;20314;-60
2022/04/12 13:53:00;;;;;;;2.65;1.40;;;19.20;55.20;;;;;;4953230;28;20306;-59
2022/04/12 13:55:31;;;;;;;1.50;1.20;;;19.20;55.20;;;;;;4953436;28;20294;-59
2022/04/12 13:58:01;;;;;;;1.40;1.25;;;19.20;55.20;;;;;;4953152;28;20289;-59
2022/04/12 14:00:34;;;;;;;1.60;1.40;;;19.20;55.20;;;;;;4952459;28;20293;-59
2022/04/12 14:03:04;;;;;;;1.90;1.20;;;19.20;55.20;;;;;;4952838;28;20230;-59
2022/04/12 14:05:34;;;;;;;1.88;1.52;;;19.20;55.20;;;;;;4952940;28;20281;-59
2022/04/12 14:08:05;;;;;;;1.67;1.20;;;19.20;55.20;;;;;;4952607;28;20277;-60
2022/04/12 14:10:36;;;;;;;1.40;1.30;;;19.10;55.20;;;;;;4952911;28;20305;-59
2022/04/12 14:13:07;;;;;;;2.05;1.10;;;19.10;55.20;;;;;;4953157;28;20293;-59
2022/04/12 14:15:40;;;;;;;3.00;1.50;;;19.20;55.20;;;;;;4949201;28;20207;-60
2022/04/12 14:18:10;;;;;;;1.42;1.30;;;19.10;55.20;;;;;;4953076;28;20199;-59
2022/04/12 14:20:41;;;;;;;1.70;1.40;;;19.10;55.20;;;;;;4952941;28;20661;-59
2022/04/12 14:23:11;;;;;;;2.40;1.35;;;19.10;55.10;;;;;;4939419;28;20302;-59
2022/04/12 14:25:42;;;;;;;1.67;1.45;;;19.10;55.20;;;;;;4933735;29;20298;-60
2022/04/12 14:28:13;;;;;;;1.77;1.17;;;19.10;55.20;;;;;;4933677;29;20287;-59
2022/04/12 14:30:45;;;;;;;1.40;1.30;;;19.10;55.20;;;;;;4955214;23;20314;-48
2022/04/12 14:33:16;;;;;;;1.73;1.20;;;19.10;55.20;;;;;;4953141;28;20289;-46
2022/04/12 14:35:46;;;;;;;2.20;1.40;;;19.10;55.20;;;;;;4953086;28;20375;-47
2022/04/12 14:38:17;;;;;;;1.73;1.27;;;19.00;55.20;;;;;;4952850;28;20293;-46
2022/04/12 14:40:49;;;;;;;1.40;1.05;;;19.10;55.20;;;;;;4952448;28;20309;-46
2022/04/12 14:43:19;;;;;;;2.55;1.20;;;19.00;55.20;;;;;;4952402;28;20231;-46
2022/04/12 14:45:52;;;;;;;1.40;1.10;;;19.10;55.20;;;;;;4947152;28;20278;-48
2022/04/12 14:48:22;;;;;;;1.35;1.10;;;19.10;55.20;;;;;;4952522;28;20237;-47
2022/04/12 14:50:55;;;;;;;1.50;1.20;;;19.10;55.20;;;;;;4952108;28;20302;-49
2022/04/12 14:53:26;;;;;;;1.42;1.20;;;19.00;55.10;;;;;;4951537;28;20226;-47
2022/04/12 14:55:56;;;;;;;1.58;1.20;;;19.00;55.10;;;;;;4944901;28;20678;-46
2022/04/12 14:58:30;;;;;;;1.60;1.17;;;19.00;55.10;;;;;;4933528;29;20290;-46
2022/04/12 15:01:04;;;;;;;1.67;1.10;;;19.00;55.10;;;;;;4937357;29;20246;-47
2022/04/12 15:03:35;;;;;;;2.13;1.30;;;19.00;55.20;;;;;;4951572;28;20265;-46
2022/04/12 15:06:08;;;;;;;1.70;1.10;;;19.00;55.20;;;;;;4952111;28;20651;-47
2022/04/12 15:08:38;;;;;;;1.75;1.33;;;19.00;55.20;;;;;;4952123;28;20213;-52
2022/04/12 15:11:09;;;;;;;2.15;1.20;;;19.00;55.20;;;;;;4952021;28;20231;-47
2022/04/12 15:13:40;;;;;;;1.30;1.13;;;19.00;55.20;;;;;;4952412;28;20609;-47
2022/04/12 15:16:12;;;;;;;1.45;1.00;;;19.00;55.30;;;;;;4945771;28;20715;-47